WFDK1: Walnut River, Winfield, KS

Data processed at Wed May 22 2019 23:30


All information presented herein is the property of the government of the United States of America and may be revised or deleted at any time without prior notice.
Dissemination of this information without the expressed written consent of the Public Affairs Office, Tulsa District U.S. Army Corps of Engineers is strictly prohibited.
These data are gathered electronically and, as presented, have not undergone any form of quality control. These data are not guaranteed to be valid or correct.
Go to home page.
Go to station list.
Go to home page.

Upstream stations:

Downstream station:
Previous Day
Next Day
Current Day
    
SHEF ID:       WFDK1     WALNUT R AT WINFIELD, KS
STATION TYPE:  
Regulating: Stage =    18.00, Flow =    17822

               PRECIP     STAGE  STAGE(2)  RIV-FLOW  BAT-LOAD
                   in        ft        ft       cfs      volt
              Ccp-Rev   Ccp-Rev   Ccp-Rev   Ccp-Rev   Ccp-Rev
(US/Central)
05/22 00:00      0.00     33.73      ----     46202     12.57
05/22 01:00      0.00     34.00      ----     47274     12.57
05/22 02:00      0.00     34.07      ----     47592     12.49
05/22 03:00      0.00     34.23      ----     48325     12.49
05/22 04:00      0.00     34.38      ----     49019     12.49
05/22 05:00      0.00     34.31      ----     48694     12.49
05/22 06:00      0.00     34.50      ----     49579     12.41
05/22 07:00      0.00     34.50      ----     49579     12.41
05/22 08:00      0.00     34.86      ----     51741     12.49
05/22 09:00      0.00     34.82      ----     51483     12.81
05/22 10:00      0.00     34.94      ----     52260     13.05
05/22 11:00      0.00     34.77      ----     51162     13.05
05/22 12:00      0.00     34.74      ----     50970     13.21
05/22 13:00      0.00     34.67      ----     50524     13.29
05/22 14:00      0.00     34.73      ----     50906     12.89
05/22 15:00      0.00     34.53      ----     49719     12.89
05/22 16:00      0.00     34.45      ----     49345     13.13
05/22 17:00      0.00     34.60      ----     50081     13.13
05/22 18:00      0.00     34.44      ----     49298     12.97
05/22 19:00      0.00     34.36      ----     48926     12.65
05/22 20:00      0.00     34.27      ----     48509     12.73
05/22 21:00      0.00     34.17      ----     48049     12.65
05/22 22:00      0.00     33.95      ----     47047     12.65
05/22 23:00      0.00     33.91      ----     46867     12.65